sensor_id;sensor_type;location;lat;lon;timestamp;P1;durP1;ratioP1;P2;durP2;ratioP2
9783;SDS011;4931;44.874;-1.092;2022-10-16T00:02:31;14.95;;;4.80;;
9783;SDS011;4931;44.874;-1.092;2022-10-16T00:07:19;9.93;;;4.90;;
9783;SDS011;4931;44.874;-1.092;2022-10-16T00:12:05;16.15;;;5.35;;
9783;SDS011;4931;44.874;-1.092;2022-10-16T00:16:50;9.73;;;4.32;;
9783;SDS011;4931;44.874;-1.092;2022-10-16T00:21:36;14.07;;;4.75;;
9783;SDS011;4931;44.874;-1.092;2022-10-16T00:26:23;13.40;;;4.80;;
9783;SDS011;4931;44.874;-1.092;2022-10-16T00:31:10;11.68;;;5.18;;
9783;SDS011;4931;44.874;-1.092;2022-10-16T00:35:57;16.55;;;4.47;;
9783;SDS011;4931;44.874;-1.092;2022-10-16T00:40:42;15.60;;;5.80;;
9783;SDS011;4931;44.874;-1.092;2022-10-16T00:45:30;10.02;;;4.28;;
9783;SDS011;4931;44.874;-1.092;2022-10-16T00:50:16;11.63;;;4.70;;
9783;SDS011;4931;44.874;-1.092;2022-10-16T00:55:07;9.48;;;4.82;;
9783;SDS011;4931;44.874;-1.092;2022-10-16T00:59:54;12.75;;;4.45;;
9783;SDS011;4931;44.874;-1.092;2022-10-16T01:04:43;11.35;;;4.50;;
9783;SDS011;4931;44.874;-1.092;2022-10-16T01:09:31;10.30;;;4.20;;
9783;SDS011;4931;44.874;-1.092;2022-10-16T01:14:28;12.07;;;4.15;;
9783;SDS011;4931;44.874;-1.092;2022-10-16T01:19:25;12.48;;;4.43;;
9783;SDS011;4931;44.874;-1.092;2022-10-16T01:24:31;7.65;;;4.40;;
9783;SDS011;4931;44.874;-1.092;2022-10-16T01:29:25;12.45;;;4.60;;
9783;SDS011;4931;44.874;-1.092;2022-10-16T01:34:15;14.00;;;4.32;;
9783;SDS011;4931;44.874;-1.092;2022-10-16T01:39:02;8.73;;;4.18;;
9783;SDS011;4931;44.874;-1.092;2022-10-16T01:43:53;8.68;;;4.13;;
9783;SDS011;4931;44.874;-1.092;2022-10-16T01:48:46;12.70;;;4.78;;
9783;SDS011;4931;44.874;-1.092;2022-10-16T01:53:33;11.63;;;4.40;;
9783;SDS011;4931;44.874;-1.092;2022-10-16T01:58:19;14.05;;;4.72;;
9783;SDS011;4931;44.874;-1.092;2022-10-16T02:03:05;6.45;;;4.10;;
9783;SDS011;4931;44.874;-1.092;2022-10-16T02:07:54;8.30;;;4.30;;
9783;SDS011;4931;44.874;-1.092;2022-10-16T02:12:45;9.23;;;4.25;;
9783;SDS011;4931;44.874;-1.092;2022-10-16T02:17:34;11.57;;;4.85;;
9783;SDS011;4931;44.874;-1.092;2022-10-16T02:22:21;10.82;;;4.25;;
9783;SDS011;4931;44.874;-1.092;2022-10-16T02:27:15;14.43;;;4.67;;
9783;SDS011;4931;44.874;-1.092;2022-10-16T02:32:04;8.55;;;3.60;;
9783;SDS011;4931;44.874;-1.092;2022-10-16T02:36:52;5.63;;;3.60;;
9783;SDS011;4931;44.874;-1.092;2022-10-16T02:41:39;9.55;;;4.03;;
9783;SDS011;4931;44.874;-1.092;2022-10-16T02:46:27;9.98;;;3.72;;
9783;SDS011;4931;44.874;-1.092;2022-10-16T02:51:12;8.07;;;3.58;;
9783;SDS011;4931;44.874;-1.092;2022-10-16T02:55:57;8.60;;;4.30;;
9783;SDS011;4931;44.874;-1.092;2022-10-16T03:00:42;6.65;;;3.60;;
9783;SDS011;4931;44.874;-1.092;2022-10-16T03:05:30;8.85;;;3.90;;
9783;SDS011;4931;44.874;-1.092;2022-10-16T03:10:16;8.40;;;4.13;;
9783;SDS011;4931;44.874;-1.092;2022-10-16T03:15:01;7.22;;;3.58;;
9783;SDS011;4931;44.874;-1.092;2022-10-16T03:19:47;8.95;;;3.95;;
9783;SDS011;4931;44.874;-1.092;2022-10-16T03:24:34;8.48;;;3.70;;
9783;SDS011;4931;44.874;-1.092;2022-10-16T03:29:20;12.40;;;3.78;;
9783;SDS011;4931;44.874;-1.092;2022-10-16T03:34:05;6.85;;;3.65;;
9783;SDS011;4931;44.874;-1.092;2022-10-16T03:38:50;8.20;;;3.83;;
9783;SDS011;4931;44.874;-1.092;2022-10-16T03:43:38;7.97;;;3.38;;
9783;SDS011;4931;44.874;-1.092;2022-10-16T03:48:23;6.63;;;3.60;;
9783;SDS011;4931;44.874;-1.092;2022-10-16T03:53:09;8.38;;;3.30;;
9783;SDS011;4931;44.874;-1.092;2022-10-16T03:57:54;11.35;;;3.92;;
9783;SDS011;4931;44.874;-1.092;2022-10-16T04:02:42;8.35;;;3.50;;
9783;SDS011;4931;44.874;-1.092;2022-10-16T04:07:47;8.32;;;3.30;;
9783;SDS011;4931;44.874;-1.092;2022-10-16T04:12:32;9.27;;;3.15;;
9783;SDS011;4931;44.874;-1.092;2022-10-16T04:17:18;8.02;;;3.30;;
9783;SDS011;4931;44.874;-1.092;2022-10-16T04:22:05;6.30;;;3.22;;
9783;SDS011;4931;44.874;-1.092;2022-10-16T04:26:51;8.07;;;3.15;;
9783;SDS011;4931;44.874;-1.092;2022-10-16T04:31:36;7.53;;;2.90;;
9783;SDS011;4931;44.874;-1.092;2022-10-16T04:36:21;8.50;;;2.80;;
9783;SDS011;4931;44.874;-1.092;2022-10-16T04:41:12;6.65;;;3.30;;
9783;SDS011;4931;44.874;-1.092;2022-10-16T04:45:57;8.65;;;3.20;;
9783;SDS011;4931;44.874;-1.092;2022-10-16T04:50:43;7.40;;;2.92;;
9783;SDS011;4931;44.874;-1.092;2022-10-16T04:55:35;7.60;;;3.30;;
9783;SDS011;4931;44.874;-1.092;2022-10-16T05:00:23;8.40;;;3.42;;
9783;SDS011;4931;44.874;-1.092;2022-10-16T05:05:08;10.05;;;3.10;;
9783;SDS011;4931;44.874;-1.092;2022-10-16T05:09:54;5.25;;;2.80;;
9783;SDS011;4931;44.874;-1.092;2022-10-16T05:14:39;8.80;;;2.67;;
9783;SDS011;4931;44.874;-1.092;2022-10-16T05:19:27;8.48;;;3.72;;
9783;SDS011;4931;44.874;-1.092;2022-10-16T05:24:12;6.07;;;4.20;;
9783;SDS011;4931;44.874;-1.092;2022-10-16T05:28:57;7.25;;;3.97;;
9783;SDS011;4931;44.874;-1.092;2022-10-16T05:33:43;10.65;;;4.50;;
9783;SDS011;4931;44.874;-1.092;2022-10-16T05:38:51;7.78;;;4.45;;
9783;SDS011;4931;44.874;-1.092;2022-10-16T05:43:36;8.70;;;4.72;;
9783;SDS011;4931;44.874;-1.092;2022-10-16T05:48:21;14.00;;;6.47;;
9783;SDS011;4931;44.874;-1.092;2022-10-16T05:53:07;10.75;;;5.90;;
9783;SDS011;4931;44.874;-1.092;2022-10-16T05:57:56;10.77;;;5.93;;
9783;SDS011;4931;44.874;-1.092;2022-10-16T06:02:41;11.52;;;5.85;;
9783;SDS011;4931;44.874;-1.092;2022-10-16T06:07:27;9.13;;;5.50;;
9783;SDS011;4931;44.874;-1.092;2022-10-16T06:12:12;8.07;;;4.40;;
9783;SDS011;4931;44.874;-1.092;2022-10-16T06:17:00;8.60;;;4.13;;
9783;SDS011;4931;44.874;-1.092;2022-10-16T06:21:45;9.57;;;4.97;;
9783;SDS011;4931;44.874;-1.092;2022-10-16T06:26:30;9.07;;;4.20;;
9783;SDS011;4931;44.874;-1.092;2022-10-16T06:31:16;9.38;;;4.10;;
9783;SDS011;4931;44.874;-1.092;2022-10-16T06:36:05;9.57;;;4.80;;
9783;SDS011;4931;44.874;-1.092;2022-10-16T06:40:53;12.25;;;6.78;;
9783;SDS011;4931;44.874;-1.092;2022-10-16T06:45:38;14.38;;;6.85;;
9783;SDS011;4931;44.874;-1.092;2022-10-16T06:50:23;8.77;;;6.63;;
9783;SDS011;4931;44.874;-1.092;2022-10-16T06:55:11;13.52;;;6.30;;
9783;SDS011;4931;44.874;-1.092;2022-10-16T06:59:56;12.25;;;6.82;;
9783;SDS011;4931;44.874;-1.092;2022-10-16T07:04:42;11.05;;;7.20;;
9783;SDS011;4931;44.874;-1.092;2022-10-16T07:09:27;12.48;;;6.70;;
9783;SDS011;4931;44.874;-1.092;2022-10-16T07:14:16;10.38;;;7.28;;
9783;SDS011;4931;44.874;-1.092;2022-10-16T07:19:03;11.10;;;7.53;;
9783;SDS011;4931;44.874;-1.092;2022-10-16T07:23:50;13.55;;;8.25;;
9783;SDS011;4931;44.874;-1.092;2022-10-16T07:28:35;12.80;;;8.52;;
9783;SDS011;4931;44.874;-1.092;2022-10-16T07:33:24;14.13;;;9.05;;
9783;SDS011;4931;44.874;-1.092;2022-10-16T07:38:09;16.73;;;9.18;;
9783;SDS011;4931;44.874;-1.092;2022-10-16T07:42:54;12.05;;;8.15;;
9783;SDS011;4931;44.874;-1.092;2022-10-16T07:47:39;12.35;;;8.82;;
9783;SDS011;4931;44.874;-1.092;2022-10-16T07:52:28;16.60;;;9.57;;
9783;SDS011;4931;44.874;-1.092;2022-10-16T07:57:13;11.10;;;8.05;;
9783;SDS011;4931;44.874;-1.092;2022-10-16T08:02:01;10.32;;;7.80;;
9783;SDS011;4931;44.874;-1.092;2022-10-16T08:06:46;12.70;;;7.88;;
9783;SDS011;4931;44.874;-1.092;2022-10-16T08:11:34;12.90;;;8.07;;
9783;SDS011;4931;44.874;-1.092;2022-10-16T08:16:19;12.48;;;7.65;;
9783;SDS011;4931;44.874;-1.092;2022-10-16T08:21:05;12.57;;;7.70;;
9783;SDS011;4931;44.874;-1.092;2022-10-16T08:25:51;12.93;;;7.95;;
9783;SDS011;4931;44.874;-1.092;2022-10-16T08:30:40;11.00;;;7.80;;
9783;SDS011;4931;44.874;-1.092;2022-10-16T08:35:25;11.18;;;7.63;;
9783;SDS011;4931;44.874;-1.092;2022-10-16T08:40:14;10.57;;;7.30;;
9783;SDS011;4931;44.874;-1.092;2022-10-16T08:45:13;9.10;;;6.85;;
9783;SDS011;4931;44.874;-1.092;2022-10-16T08:50:11;7.35;;;6.25;;
9783;SDS011;4931;44.874;-1.092;2022-10-16T08:54:57;9.53;;;6.07;;
9783;SDS011;4931;44.874;-1.092;2022-10-16T08:59:46;7.88;;;6.05;;
9783;SDS011;4931;44.874;-1.092;2022-10-16T09:04:44;7.05;;;5.70;;
9783;SDS011;4931;44.874;-1.092;2022-10-16T09:09:45;7.68;;;5.80;;
9783;SDS011;4931;44.874;-1.092;2022-10-16T09:14:40;9.88;;;6.32;;
9783;SDS011;4931;44.874;-1.092;2022-10-16T09:19:43;9.30;;;5.63;;
9783;SDS011;4931;44.874;-1.092;2022-10-16T09:24:31;10.05;;;6.40;;
9783;SDS011;4931;44.874;-1.092;2022-10-16T09:29:19;10.90;;;5.80;;
9783;SDS011;4931;44.874;-1.092;2022-10-16T09:34:08;11.20;;;5.60;;
9783;SDS011;4931;44.874;-1.092;2022-10-16T09:39:03;9.43;;;5.18;;
9783;SDS011;4931;44.874;-1.092;2022-10-16T09:43:52;10.88;;;6.03;;
9783;SDS011;4931;44.874;-1.092;2022-10-16T09:48:47;10.07;;;5.07;;
9783;SDS011;4931;44.874;-1.092;2022-10-16T09:53:40;7.95;;;5.50;;
9783;SDS011;4931;44.874;-1.092;2022-10-16T09:58:27;9.35;;;4.93;;
9783;SDS011;4931;44.874;-1.092;2022-10-16T10:03:12;8.90;;;5.43;;
9783;SDS011;4931;44.874;-1.092;2022-10-16T10:08:00;7.65;;;5.32;;
9783;SDS011;4931;44.874;-1.092;2022-10-16T10:12:47;9.73;;;5.93;;
9783;SDS011;4931;44.874;-1.092;2022-10-16T10:17:33;10.57;;;5.05;;
9783;SDS011;4931;44.874;-1.092;2022-10-16T10:22:25;9.02;;;4.97;;
9783;SDS011;4931;44.874;-1.092;2022-10-16T10:27:17;7.15;;;5.00;;
9783;SDS011;4931;44.874;-1.092;2022-10-16T10:32:06;7.47;;;4.60;;
9783;SDS011;4931;44.874;-1.092;2022-10-16T10:37:02;8.55;;;4.75;;
9783;SDS011;4931;44.874;-1.092;2022-10-16T10:41:59;8.45;;;5.03;;
9783;SDS011;4931;44.874;-1.092;2022-10-16T10:46:57;6.80;;;4.65;;
9783;SDS011;4931;44.874;-1.092;2022-10-16T10:51:48;10.45;;;4.75;;
9783;SDS011;4931;44.874;-1.092;2022-10-16T10:56:47;7.50;;;4.43;;
9783;SDS011;4931;44.874;-1.092;2022-10-16T11:01:44;8.48;;;5.03;;
9783;SDS011;4931;44.874;-1.092;2022-10-16T11:06:39;7.82;;;4.68;;
9783;SDS011;4931;44.874;-1.092;2022-10-16T11:11:30;12.20;;;4.90;;
9783;SDS011;4931;44.874;-1.092;2022-10-16T11:16:21;9.88;;;5.00;;
9783;SDS011;4931;44.874;-1.092;2022-10-16T11:21:18;8.35;;;5.07;;
9783;SDS011;4931;44.874;-1.092;2022-10-16T11:26:15;11.07;;;5.20;;
9783;SDS011;4931;44.874;-1.092;2022-10-16T11:31:07;8.60;;;5.20;;
9783;SDS011;4931;44.874;-1.092;2022-10-16T11:35:57;9.20;;;4.97;;
9783;SDS011;4931;44.874;-1.092;2022-10-16T11:40:48;9.65;;;4.80;;
9783;SDS011;4931;44.874;-1.092;2022-10-16T11:45:42;8.80;;;4.95;;
9783;SDS011;4931;44.874;-1.092;2022-10-16T11:50:33;11.52;;;5.43;;
9783;SDS011;4931;44.874;-1.092;2022-10-16T11:55:23;10.13;;;5.07;;
9783;SDS011;4931;44.874;-1.092;2022-10-16T12:00:18;8.85;;;5.38;;
9783;SDS011;4931;44.874;-1.092;2022-10-16T12:05:18;8.75;;;5.25;;
9783;SDS011;4931;44.874;-1.092;2022-10-16T12:10:17;11.65;;;4.75;;
9783;SDS011;4931;44.874;-1.092;2022-10-16T12:15:18;10.40;;;4.75;;
9783;SDS011;4931;44.874;-1.092;2022-10-16T12:20:30;15.77;;;4.72;;
9783;SDS011;4931;44.874;-1.092;2022-10-16T12:25:19;13.98;;;4.00;;
9783;SDS011;4931;44.874;-1.092;2022-10-16T12:30:15;11.27;;;3.58;;
9783;SDS011;4931;44.874;-1.092;2022-10-16T12:35:16;15.13;;;3.63;;
9783;SDS011;4931;44.874;-1.092;2022-10-16T12:40:13;14.27;;;4.25;;
9783;SDS011;4931;44.874;-1.092;2022-10-16T12:45:23;12.32;;;3.35;;
9783;SDS011;4931;44.874;-1.092;2022-10-16T12:50:23;9.85;;;3.10;;
9783;SDS011;4931;44.874;-1.092;2022-10-16T12:55:15;8.23;;;3.28;;
9783;SDS011;4931;44.874;-1.092;2022-10-16T13:00:04;9.93;;;3.50;;
9783;SDS011;4931;44.874;-1.092;2022-10-16T13:05:03;8.93;;;3.50;;
9783;SDS011;4931;44.874;-1.092;2022-10-16T13:10:04;8.77;;;3.35;;
9783;SDS011;4931;44.874;-1.092;2022-10-16T13:15:01;10.50;;;3.58;;
9783;SDS011;4931;44.874;-1.092;2022-10-16T13:20:02;11.70;;;3.60;;
9783;SDS011;4931;44.874;-1.092;2022-10-16T13:25:00;12.07;;;3.70;;
9783;SDS011;4931;44.874;-1.092;2022-10-16T13:30:10;10.48;;;3.65;;
9783;SDS011;4931;44.874;-1.092;2022-10-16T13:34:58;19.25;;;3.80;;
9783;SDS011;4931;44.874;-1.092;2022-10-16T13:39:43;8.80;;;4.05;;
9783;SDS011;4931;44.874;-1.092;2022-10-16T13:44:35;9.23;;;3.45;;
9783;SDS011;4931;44.874;-1.092;2022-10-16T13:49:27;8.73;;;3.17;;
9783;SDS011;4931;44.874;-1.092;2022-10-16T13:54:13;11.88;;;3.50;;
9783;SDS011;4931;44.874;-1.092;2022-10-16T13:58:59;8.85;;;3.28;;
9783;SDS011;4931;44.874;-1.092;2022-10-16T14:03:46;14.60;;;3.58;;
9783;SDS011;4931;44.874;-1.092;2022-10-16T14:08:35;6.90;;;3.40;;
9783;SDS011;4931;44.874;-1.092;2022-10-16T14:13:25;6.80;;;3.17;;
9783;SDS011;4931;44.874;-1.092;2022-10-16T14:18:17;12.65;;;3.70;;
9783;SDS011;4931;44.874;-1.092;2022-10-16T14:23:18;8.70;;;3.70;;
9783;SDS011;4931;44.874;-1.092;2022-10-16T14:28:17;11.18;;;3.70;;
9783;SDS011;4931;44.874;-1.092;2022-10-16T14:33:04;9.43;;;3.60;;
9783;SDS011;4931;44.874;-1.092;2022-10-16T14:37:51;6.65;;;3.67;;
9783;SDS011;4931;44.874;-1.092;2022-10-16T14:42:37;10.30;;;4.38;;
9783;SDS011;4931;44.874;-1.092;2022-10-16T14:47:25;10.60;;;3.60;;
9783;SDS011;4931;44.874;-1.092;2022-10-16T14:52:11;8.65;;;3.40;;
9783;SDS011;4931;44.874;-1.092;2022-10-16T14:56:57;9.43;;;3.95;;
9783;SDS011;4931;44.874;-1.092;2022-10-16T15:01:43;9.93;;;5.50;;
9783;SDS011;4931;44.874;-1.092;2022-10-16T15:06:31;12.50;;;4.60;;
9783;SDS011;4931;44.874;-1.092;2022-10-16T15:11:17;12.00;;;3.65;;
9783;SDS011;4931;44.874;-1.092;2022-10-16T15:16:03;10.68;;;4.20;;
9783;SDS011;4931;44.874;-1.092;2022-10-16T15:20:49;8.27;;;4.00;;
9783;SDS011;4931;44.874;-1.092;2022-10-16T15:25:41;9.82;;;3.72;;
9783;SDS011;4931;44.874;-1.092;2022-10-16T15:30:27;10.30;;;3.97;;
9783;SDS011;4931;44.874;-1.092;2022-10-16T15:35:13;9.32;;;3.67;;
9783;SDS011;4931;44.874;-1.092;2022-10-16T15:39:58;13.18;;;4.10;;
9783;SDS011;4931;44.874;-1.092;2022-10-16T15:44:46;10.73;;;3.65;;
9783;SDS011;4931;44.874;-1.092;2022-10-16T15:49:31;10.13;;;3.80;;
9783;SDS011;4931;44.874;-1.092;2022-10-16T15:54:17;9.85;;;3.60;;
9783;SDS011;4931;44.874;-1.092;2022-10-16T15:59:04;10.73;;;4.85;;
9783;SDS011;4931;44.874;-1.092;2022-10-16T16:03:54;10.90;;;4.15;;
9783;SDS011;4931;44.874;-1.092;2022-10-16T16:08:40;6.72;;;4.03;;
9783;SDS011;4931;44.874;-1.092;2022-10-16T16:13:26;12.77;;;4.55;;
9783;SDS011;4931;44.874;-1.092;2022-10-16T16:18:12;18.73;;;4.10;;
9783;SDS011;4931;44.874;-1.092;2022-10-16T16:23:00;11.40;;;7.05;;
9783;SDS011;4931;44.874;-1.092;2022-10-16T16:27:46;13.10;;;7.32;;
9783;SDS011;4931;44.874;-1.092;2022-10-16T16:32:31;15.45;;;4.80;;
9783;SDS011;4931;44.874;-1.092;2022-10-16T16:37:16;11.00;;;5.00;;
9783;SDS011;4931;44.874;-1.092;2022-10-16T16:42:05;11.55;;;5.15;;
9783;SDS011;4931;44.874;-1.092;2022-10-16T16:46:54;15.88;;;5.65;;
9783;SDS011;4931;44.874;-1.092;2022-10-16T16:51:40;13.77;;;4.40;;
9783;SDS011;4931;44.874;-1.092;2022-10-16T16:56:29;12.05;;;4.15;;
9783;SDS011;4931;44.874;-1.092;2022-10-16T17:01:18;14.80;;;4.78;;
9783;SDS011;4931;44.874;-1.092;2022-10-16T17:06:05;14.45;;;4.97;;
9783;SDS011;4931;44.874;-1.092;2022-10-16T17:10:52;16.48;;;5.80;;
9783;SDS011;4931;44.874;-1.092;2022-10-16T17:15:44;15.10;;;5.43;;
9783;SDS011;4931;44.874;-1.092;2022-10-16T17:20:34;16.08;;;6.97;;
9783;SDS011;4931;44.874;-1.092;2022-10-16T17:25:21;20.33;;;8.30;;
9783;SDS011;4931;44.874;-1.092;2022-10-16T17:30:10;23.63;;;7.10;;
9783;SDS011;4931;44.874;-1.092;2022-10-16T17:34:56;21.63;;;7.00;;
9783;SDS011;4931;44.874;-1.092;2022-10-16T17:39:45;22.33;;;7.25;;
9783;SDS011;4931;44.874;-1.092;2022-10-16T17:44:34;11.15;;;5.53;;
9783;SDS011;4931;44.874;-1.092;2022-10-16T17:49:20;11.85;;;5.75;;
9783;SDS011;4931;44.874;-1.092;2022-10-16T17:54:07;19.60;;;7.35;;
9783;SDS011;4931;44.874;-1.092;2022-10-16T17:59:00;14.57;;;6.60;;
9783;SDS011;4931;44.874;-1.092;2022-10-16T18:03:48;15.52;;;8.63;;
9783;SDS011;4931;44.874;-1.092;2022-10-16T18:08:34;24.83;;;8.90;;
9783;SDS011;4931;44.874;-1.092;2022-10-16T18:13:20;22.25;;;9.13;;
9783;SDS011;4931;44.874;-1.092;2022-10-16T18:18:07;17.05;;;7.35;;
9783;SDS011;4931;44.874;-1.092;2022-10-16T18:22:53;18.20;;;7.57;;
9783;SDS011;4931;44.874;-1.092;2022-10-16T18:27:38;22.67;;;8.95;;
9783;SDS011;4931;44.874;-1.092;2022-10-16T18:32:23;20.77;;;8.90;;
9783;SDS011;4931;44.874;-1.092;2022-10-16T18:37:11;24.50;;;9.40;;
9783;SDS011;4931;44.874;-1.092;2022-10-16T18:41:57;24.05;;;10.50;;
9783;SDS011;4931;44.874;-1.092;2022-10-16T18:46:43;20.17;;;10.55;;
9783;SDS011;4931;44.874;-1.092;2022-10-16T18:51:28;25.05;;;11.18;;
9783;SDS011;4931;44.874;-1.092;2022-10-16T18:56:18;24.23;;;9.85;;
9783;SDS011;4931;44.874;-1.092;2022-10-16T19:01:04;22.95;;;8.77;;
9783;SDS011;4931;44.874;-1.092;2022-10-16T19:05:58;19.73;;;9.80;;
9783;SDS011;4931;44.874;-1.092;2022-10-16T19:10:44;18.02;;;7.15;;
9783;SDS011;4931;44.874;-1.092;2022-10-16T19:15:31;10.85;;;6.00;;
9783;SDS011;4931;44.874;-1.092;2022-10-16T19:20:17;8.98;;;5.88;;
9783;SDS011;4931;44.874;-1.092;2022-10-16T19:25:02;9.40;;;6.05;;
9783;SDS011;4931;44.874;-1.092;2022-10-16T19:29:47;10.60;;;5.70;;
9783;SDS011;4931;44.874;-1.092;2022-10-16T19:34:35;10.68;;;6.05;;
9783;SDS011;4931;44.874;-1.092;2022-10-16T19:39:21;11.02;;;5.13;;
9783;SDS011;4931;44.874;-1.092;2022-10-16T19:44:07;11.88;;;6.07;;
9783;SDS011;4931;44.874;-1.092;2022-10-16T19:48:55;13.70;;;6.22;;
9783;SDS011;4931;44.874;-1.092;2022-10-16T19:53:45;10.63;;;6.07;;
9783;SDS011;4931;44.874;-1.092;2022-10-16T19:58:31;12.95;;;5.88;;
9783;SDS011;4931;44.874;-1.092;2022-10-16T20:03:16;9.15;;;6.45;;
9783;SDS011;4931;44.874;-1.092;2022-10-16T20:08:02;10.07;;;6.55;;
9783;SDS011;4931;44.874;-1.092;2022-10-16T20:12:50;12.75;;;6.57;;
9783;SDS011;4931;44.874;-1.092;2022-10-16T20:17:35;13.90;;;6.70;;
9783;SDS011;4931;44.874;-1.092;2022-10-16T20:22:20;14.45;;;6.65;;
9783;SDS011;4931;44.874;-1.092;2022-10-16T20:27:05;10.05;;;7.05;;
9783;SDS011;4931;44.874;-1.092;2022-10-16T20:31:53;11.30;;;6.70;;
9783;SDS011;4931;44.874;-1.092;2022-10-16T20:36:39;12.77;;;6.53;;
9783;SDS011;4931;44.874;-1.092;2022-10-16T20:41:26;12.15;;;7.00;;
9783;SDS011;4931;44.874;-1.092;2022-10-16T20:46:12;15.07;;;7.28;;
9783;SDS011;4931;44.874;-1.092;2022-10-16T20:51:08;10.43;;;6.53;;
9783;SDS011;4931;44.874;-1.092;2022-10-16T20:55:54;14.00;;;6.10;;
9783;SDS011;4931;44.874;-1.092;2022-10-16T21:00:39;14.52;;;6.47;;
9783;SDS011;4931;44.874;-1.092;2022-10-16T21:05:24;10.77;;;6.50;;
9783;SDS011;4931;44.874;-1.092;2022-10-16T21:10:15;7.70;;;6.28;;
9783;SDS011;4931;44.874;-1.092;2022-10-16T21:15:00;11.40;;;6.10;;
9783;SDS011;4931;44.874;-1.092;2022-10-16T21:20:00;12.55;;;6.15;;
9783;SDS011;4931;44.874;-1.092;2022-10-16T21:24:46;12.38;;;6.25;;
9783;SDS011;4931;44.874;-1.092;2022-10-16T21:29:34;10.02;;;6.03;;
9783;SDS011;4931;44.874;-1.092;2022-10-16T21:34:19;10.95;;;5.88;;
9783;SDS011;4931;44.874;-1.092;2022-10-16T21:39:05;9.68;;;5.50;;
9783;SDS011;4931;44.874;-1.092;2022-10-16T21:43:52;13.45;;;5.95;;
9783;SDS011;4931;44.874;-1.092;2022-10-16T21:48:40;10.45;;;5.97;;
9783;SDS011;4931;44.874;-1.092;2022-10-16T21:53:26;10.10;;;5.78;;
9783;SDS011;4931;44.874;-1.092;2022-10-16T21:58:11;12.57;;;5.65;;
9783;SDS011;4931;44.874;-1.092;2022-10-16T22:02:56;13.23;;;6.20;;
9783;SDS011;4931;44.874;-1.092;2022-10-16T22:07:44;10.95;;;6.18;;
9783;SDS011;4931;44.874;-1.092;2022-10-16T22:12:29;12.00;;;5.68;;
9783;SDS011;4931;44.874;-1.092;2022-10-16T22:17:14;13.32;;;6.07;;
9783;SDS011;4931;44.874;-1.092;2022-10-16T22:21:59;10.63;;;5.63;;
9783;SDS011;4931;44.874;-1.092;2022-10-16T22:26:47;12.05;;;5.80;;
9783;SDS011;4931;44.874;-1.092;2022-10-16T22:31:33;13.00;;;5.78;;
9783;SDS011;4931;44.874;-1.092;2022-10-16T22:36:18;12.68;;;5.70;;
9783;SDS011;4931;44.874;-1.092;2022-10-16T22:41:04;14.27;;;6.03;;
9783;SDS011;4931;44.874;-1.092;2022-10-16T22:45:53;13.55;;;6.00;;
9783;SDS011;4931;44.874;-1.092;2022-10-16T22:50:38;10.35;;;5.78;;
9783;SDS011;4931;44.874;-1.092;2022-10-16T22:55:23;10.95;;;5.85;;
9783;SDS011;4931;44.874;-1.092;2022-10-16T23:00:09;11.02;;;5.75;;
9783;SDS011;4931;44.874;-1.092;2022-10-16T23:05:00;12.05;;;5.70;;
9783;SDS011;4931;44.874;-1.092;2022-10-16T23:09:46;10.45;;;6.00;;
9783;SDS011;4931;44.874;-1.092;2022-10-16T23:14:32;13.13;;;6.05;;
9783;SDS011;4931;44.874;-1.092;2022-10-16T23:19:17;12.10;;;5.63;;
9783;SDS011;4931;44.874;-1.092;2022-10-16T23:24:05;10.88;;;5.60;;
9783;SDS011;4931;44.874;-1.092;2022-10-16T23:28:50;14.95;;;6.45;;
9783;SDS011;4931;44.874;-1.092;2022-10-16T23:33:36;9.55;;;5.70;;
9783;SDS011;4931;44.874;-1.092;2022-10-16T23:38:22;12.38;;;5.57;;
9783;SDS011;4931;44.874;-1.092;2022-10-16T23:43:10;9.73;;;5.35;;
9783;SDS011;4931;44.874;-1.092;2022-10-16T23:47:55;11.85;;;6.07;;
9783;SDS011;4931;44.874;-1.092;2022-10-16T23:52:41;15.63;;;5.72;;
9783;SDS011;4931;44.874;-1.092;2022-10-16T23:57:26;14.43;;;5.43;;
